sensor_id;sensor_type;location;lat;lon;timestamp;P1;durP1;ratioP1;P2;durP2;ratioP2
13588;SDS011;6865;52.552;13.434;2022-08-11T00:00:57;5.32;;;2.30;;
13588;SDS011;6865;52.552;13.434;2022-08-11T00:03:24;5.43;;;2.20;;
13588;SDS011;6865;52.552;13.434;2022-08-11T00:06:09;2.50;;;2.28;;
13588;SDS011;6865;52.552;13.434;2022-08-11T00:08:39;4.85;;;2.47;;
13588;SDS011;6865;52.552;13.434;2022-08-11T00:11:07;5.05;;;2.30;;
13588;SDS011;6865;52.552;13.434;2022-08-11T00:13:38;3.95;;;2.20;;
13588;SDS011;6865;52.552;13.434;2022-08-11T00:16:11;4.55;;;2.08;;
13588;SDS011;6865;52.552;13.434;2022-08-11T00:18:51;3.13;;;2.65;;
13588;SDS011;6865;52.552;13.434;2022-08-11T00:21:20;4.45;;;2.30;;
13588;SDS011;6865;52.552;13.434;2022-08-11T00:24:08;3.28;;;2.47;;
13588;SDS011;6865;52.552;13.434;2022-08-11T00:26:36;3.92;;;2.17;;
13588;SDS011;6865;52.552;13.434;2022-08-11T00:29:09;4.65;;;2.55;;
13588;SDS011;6865;52.552;13.434;2022-08-11T00:31:37;4.45;;;2.30;;
13588;SDS011;6865;52.552;13.434;2022-08-11T00:34:09;4.05;;;2.47;;
13588;SDS011;6865;52.552;13.434;2022-08-11T00:36:38;3.70;;;2.30;;
13588;SDS011;6865;52.552;13.434;2022-08-11T00:39:10;5.00;;;2.88;;
13588;SDS011;6865;52.552;13.434;2022-08-11T00:41:44;3.28;;;2.50;;
13588;SDS011;6865;52.552;13.434;2022-08-11T00:44:35;3.67;;;2.30;;
13588;SDS011;6865;52.552;13.434;2022-08-11T00:47:23;6.10;;;2.60;;
13588;SDS011;6865;52.552;13.434;2022-08-11T00:50:07;4.18;;;2.40;;
13588;SDS011;6865;52.552;13.434;2022-08-11T00:56:23;5.95;;;2.85;;
13588;SDS011;6865;52.552;13.434;2022-08-11T01:02:08;4.43;;;2.60;;
13588;SDS011;6865;52.552;13.434;2022-08-11T01:04:47;3.72;;;2.40;;
13588;SDS011;6865;52.552;13.434;2022-08-11T01:07:54;3.67;;;2.55;;
13588;SDS011;6865;52.552;13.434;2022-08-11T01:10:48;6.07;;;2.55;;
13588;SDS011;6865;52.552;13.434;2022-08-11T01:13:45;5.25;;;2.20;;
13588;SDS011;6865;52.552;13.434;2022-08-11T01:16:44;5.22;;;2.60;;
13588;SDS011;6865;52.552;13.434;2022-08-11T01:20:02;3.80;;;2.30;;
13588;SDS011;6865;52.552;13.434;2022-08-11T01:23:25;5.78;;;2.53;;
13588;SDS011;6865;52.552;13.434;2022-08-11T01:45:28;5.60;;;2.67;;
13588;SDS011;6865;52.552;13.434;2022-08-11T01:48:33;6.70;;;2.85;;
13588;SDS011;6865;52.552;13.434;2022-08-11T01:51:34;4.82;;;3.00;;
13588;SDS011;6865;52.552;13.434;2022-08-11T01:54:26;5.30;;;3.13;;
13588;SDS011;6865;52.552;13.434;2022-08-11T01:57:15;5.53;;;2.50;;
13588;SDS011;6865;52.552;13.434;2022-08-11T01:59:57;5.75;;;3.28;;
13588;SDS011;6865;52.552;13.434;2022-08-11T02:11:27;4.55;;;3.92;;
13588;SDS011;6865;52.552;13.434;2022-08-11T02:14:11;5.43;;;4.25;;
13588;SDS011;6865;52.552;13.434;2022-08-11T02:16:47;6.50;;;3.80;;
13588;SDS011;6865;52.552;13.434;2022-08-11T02:22:30;4.85;;;3.60;;
13588;SDS011;6865;52.552;13.434;2022-08-11T02:25:36;6.35;;;4.35;;
13588;SDS011;6865;52.552;13.434;2022-08-11T02:28:09;8.43;;;4.00;;
13588;SDS011;6865;52.552;13.434;2022-08-11T02:30:58;5.07;;;3.58;;
13588;SDS011;6865;52.552;13.434;2022-08-11T02:34:21;3.80;;;3.40;;
13588;SDS011;6865;52.552;13.434;2022-08-11T02:37:09;7.22;;;3.50;;
13588;SDS011;6865;52.552;13.434;2022-08-11T02:50:46;6.70;;;4.60;;
13588;SDS011;6865;52.552;13.434;2022-08-11T02:53:31;6.65;;;4.93;;
13588;SDS011;6865;52.552;13.434;2022-08-11T02:59:28;8.65;;;4.82;;
13588;SDS011;6865;52.552;13.434;2022-08-11T03:02:39;8.95;;;4.72;;
13588;SDS011;6865;52.552;13.434;2022-08-11T03:05:20;5.60;;;4.25;;
13588;SDS011;6865;52.552;13.434;2022-08-11T03:10:50;5.35;;;4.30;;
13588;SDS011;6865;52.552;13.434;2022-08-11T03:13:55;6.22;;;4.10;;
13588;SDS011;6865;52.552;13.434;2022-08-11T03:16:50;7.75;;;4.15;;
13588;SDS011;6865;52.552;13.434;2022-08-11T03:22:12;4.15;;;3.75;;
13588;SDS011;6865;52.552;13.434;2022-08-11T03:30:12;6.88;;;4.13;;
13588;SDS011;6865;52.552;13.434;2022-08-11T03:32:51;5.65;;;3.72;;
13588;SDS011;6865;52.552;13.434;2022-08-11T03:35:51;7.18;;;4.15;;
13588;SDS011;6865;52.552;13.434;2022-08-11T03:38:51;4.75;;;4.35;;
13588;SDS011;6865;52.552;13.434;2022-08-11T03:41:31;7.47;;;4.20;;
13588;SDS011;6865;52.552;13.434;2022-08-11T03:47:36;4.90;;;3.90;;
13588;SDS011;6865;52.552;13.434;2022-08-11T03:53:43;5.65;;;4.30;;
13588;SDS011;6865;52.552;13.434;2022-08-11T03:56:47;8.10;;;4.18;;
13588;SDS011;6865;52.552;13.434;2022-08-11T03:59:47;6.47;;;3.78;;
13588;SDS011;6865;52.552;13.434;2022-08-11T04:02:40;6.47;;;4.65;;
13588;SDS011;6865;52.552;13.434;2022-08-11T04:08:47;7.22;;;4.80;;
13588;SDS011;6865;52.552;13.434;2022-08-11T04:11:37;7.25;;;4.50;;
13588;SDS011;6865;52.552;13.434;2022-08-11T04:14:48;9.63;;;4.93;;
13588;SDS011;6865;52.552;13.434;2022-08-11T04:30:25;8.40;;;4.70;;
13588;SDS011;6865;52.552;13.434;2022-08-11T04:35:31;10.35;;;4.45;;
13588;SDS011;6865;52.552;13.434;2022-08-11T04:38:28;7.20;;;4.00;;
13588;SDS011;6865;52.552;13.434;2022-08-11T04:44:06;6.32;;;3.92;;
13588;SDS011;6865;52.552;13.434;2022-08-11T04:47:06;8.13;;;3.92;;
13588;SDS011;6865;52.552;13.434;2022-08-11T04:51:18;5.47;;;3.95;;
13588;SDS011;6865;52.552;13.434;2022-08-11T04:53:56;10.00;;;4.00;;
13588;SDS011;6865;52.552;13.434;2022-08-11T04:57:21;8.90;;;4.25;;
13588;SDS011;6865;52.552;13.434;2022-08-11T05:00:33;8.45;;;4.18;;
13588;SDS011;6865;52.552;13.434;2022-08-11T05:03:41;6.95;;;4.30;;
13588;SDS011;6865;52.552;13.434;2022-08-11T05:06:42;14.23;;;4.20;;
13588;SDS011;6865;52.552;13.434;2022-08-11T05:09:37;10.27;;;4.00;;
13588;SDS011;6865;52.552;13.434;2022-08-11T05:12:40;6.18;;;3.85;;
13588;SDS011;6865;52.552;13.434;2022-08-11T05:15:48;7.68;;;4.03;;
13588;SDS011;6865;52.552;13.434;2022-08-11T05:18:47;9.60;;;4.75;;
13588;SDS011;6865;52.552;13.434;2022-08-11T05:21:35;12.38;;;4.55;;
13588;SDS011;6865;52.552;13.434;2022-08-11T05:24:24;11.00;;;4.10;;
13588;SDS011;6865;52.552;13.434;2022-08-11T05:27:14;10.60;;;7.28;;
13588;SDS011;6865;52.552;13.434;2022-08-11T05:30:04;5.43;;;3.88;;
13588;SDS011;6865;52.552;13.434;2022-08-11T05:36:14;6.03;;;4.43;;
13588;SDS011;6865;52.552;13.434;2022-08-11T05:39:01;7.25;;;4.70;;
13588;SDS011;6865;52.552;13.434;2022-08-11T05:42:01;7.57;;;4.38;;
13588;SDS011;6865;52.552;13.434;2022-08-11T05:44:56;14.60;;;4.72;;
13588;SDS011;6865;52.552;13.434;2022-08-11T05:47:48;6.10;;;4.20;;
13588;SDS011;6865;52.552;13.434;2022-08-11T05:50:34;8.70;;;5.00;;
13588;SDS011;6865;52.552;13.434;2022-08-11T05:53:22;11.43;;;4.32;;
13588;SDS011;6865;52.552;13.434;2022-08-11T05:56:11;9.25;;;5.00;;
13588;SDS011;6865;52.552;13.434;2022-08-11T05:58:50;9.65;;;4.75;;
13588;SDS011;6865;52.552;13.434;2022-08-11T06:01:22;8.48;;;4.55;;
13588;SDS011;6865;52.552;13.434;2022-08-11T06:03:52;5.35;;;4.30;;
13588;SDS011;6865;52.552;13.434;2022-08-11T06:06:40;9.02;;;5.00;;
13588;SDS011;6865;52.552;13.434;2022-08-11T06:09:20;9.45;;;5.13;;
13588;SDS011;6865;52.552;13.434;2022-08-11T06:11:57;8.85;;;5.00;;
13588;SDS011;6865;52.552;13.434;2022-08-11T06:14:26;8.13;;;4.65;;
13588;SDS011;6865;52.552;13.434;2022-08-11T06:16:55;7.72;;;5.20;;
13588;SDS011;6865;52.552;13.434;2022-08-11T06:19:38;7.90;;;4.65;;
13588;SDS011;6865;52.552;13.434;2022-08-11T06:22:08;6.53;;;4.95;;
13588;SDS011;6865;52.552;13.434;2022-08-11T06:24:38;8.95;;;4.82;;
13588;SDS011;6865;52.552;13.434;2022-08-11T06:27:07;9.07;;;4.68;;
13588;SDS011;6865;52.552;13.434;2022-08-11T06:29:45;8.20;;;4.72;;
13588;SDS011;6865;52.552;13.434;2022-08-11T06:32:25;8.98;;;4.75;;
13588;SDS011;6865;52.552;13.434;2022-08-11T06:37:52;10.23;;;4.93;;
13588;SDS011;6865;52.552;13.434;2022-08-11T06:40:33;12.10;;;4.82;;
13588;SDS011;6865;52.552;13.434;2022-08-11T06:43:16;13.60;;;5.07;;
13588;SDS011;6865;52.552;13.434;2022-08-11T06:45:48;6.88;;;4.60;;
13588;SDS011;6865;52.552;13.434;2022-08-11T06:48:20;7.47;;;4.28;;
13588;SDS011;6865;52.552;13.434;2022-08-11T06:50:57;10.27;;;4.72;;
13588;SDS011;6865;52.552;13.434;2022-08-11T06:53:55;7.15;;;4.43;;
13588;SDS011;6865;52.552;13.434;2022-08-11T06:56:34;5.20;;;4.03;;
13588;SDS011;6865;52.552;13.434;2022-08-11T06:59:42;12.02;;;4.93;;
13588;SDS011;6865;52.552;13.434;2022-08-11T07:03:05;8.40;;;4.10;;
13588;SDS011;6865;52.552;13.434;2022-08-11T07:15:14;5.90;;;4.32;;
13588;SDS011;6865;52.552;13.434;2022-08-11T07:18:21;5.40;;;3.88;;
13588;SDS011;6865;52.552;13.434;2022-08-11T07:21:14;7.15;;;3.80;;
13588;SDS011;6865;52.552;13.434;2022-08-11T07:24:28;9.25;;;3.70;;
13588;SDS011;6865;52.552;13.434;2022-08-11T07:27:29;9.43;;;4.60;;
13588;SDS011;6865;52.552;13.434;2022-08-11T07:30:19;10.00;;;4.28;;
13588;SDS011;6865;52.552;13.434;2022-08-11T07:32:48;5.53;;;3.75;;
13588;SDS011;6865;52.552;13.434;2022-08-11T07:35:27;4.72;;;3.60;;
13588;SDS011;6865;52.552;13.434;2022-08-11T07:38:03;4.55;;;3.50;;
13588;SDS011;6865;52.552;13.434;2022-08-11T07:40:36;7.60;;;3.67;;
13588;SDS011;6865;52.552;13.434;2022-08-11T07:43:04;7.18;;;4.15;;
13588;SDS011;6865;52.552;13.434;2022-08-11T07:45:32;7.15;;;3.90;;
13588;SDS011;6865;52.552;13.434;2022-08-11T07:48:18;8.60;;;3.80;;
13588;SDS011;6865;52.552;13.434;2022-08-11T07:51:04;8.10;;;4.10;;
13588;SDS011;6865;52.552;13.434;2022-08-11T07:53:50;6.85;;;4.13;;
13588;SDS011;6865;52.552;13.434;2022-08-11T07:56:33;7.15;;;3.72;;
13588;SDS011;6865;52.552;13.434;2022-08-11T07:59:22;9.57;;;3.92;;
13588;SDS011;6865;52.552;13.434;2022-08-11T08:02:27;5.22;;;3.35;;
13588;SDS011;6865;52.552;13.434;2022-08-11T08:05:15;7.88;;;3.80;;
13588;SDS011;6865;52.552;13.434;2022-08-11T08:08:02;4.90;;;3.53;;
13588;SDS011;6865;52.552;13.434;2022-08-11T08:10:48;7.10;;;3.55;;
13588;SDS011;6865;52.552;13.434;2022-08-11T08:13:34;5.85;;;3.67;;
13588;SDS011;6865;52.552;13.434;2022-08-11T08:16:21;6.35;;;5.30;;
13588;SDS011;6865;52.552;13.434;2022-08-11T08:19:06;6.65;;;4.50;;
13588;SDS011;6865;52.552;13.434;2022-08-11T08:21:37;6.00;;;4.40;;
13588;SDS011;6865;52.552;13.434;2022-08-11T08:24:04;6.38;;;3.47;;
13588;SDS011;6865;52.552;13.434;2022-08-11T08:26:32;7.32;;;3.88;;
13588;SDS011;6865;52.552;13.434;2022-08-11T08:29:18;5.15;;;3.95;;
13588;SDS011;6865;52.552;13.434;2022-08-11T08:32:05;5.40;;;3.70;;
13588;SDS011;6865;52.552;13.434;2022-08-11T08:34:34;6.20;;;3.17;;
13588;SDS011;6865;52.552;13.434;2022-08-11T08:37:03;4.20;;;3.00;;
13588;SDS011;6865;52.552;13.434;2022-08-11T08:39:51;4.38;;;3.33;;
13588;SDS011;6865;52.552;13.434;2022-08-11T08:42:31;5.93;;;3.00;;
13588;SDS011;6865;52.552;13.434;2022-08-11T08:45:10;6.07;;;3.38;;
13588;SDS011;6865;52.552;13.434;2022-08-11T08:47:41;4.68;;;3.00;;
13588;SDS011;6865;52.552;13.434;2022-08-11T08:50:16;5.18;;;3.13;;
13588;SDS011;6865;52.552;13.434;2022-08-11T08:52:54;4.25;;;3.08;;
13588;SDS011;6865;52.552;13.434;2022-08-11T08:55:26;5.72;;;3.30;;
13588;SDS011;6865;52.552;13.434;2022-08-11T08:57:55;4.53;;;3.15;;
13588;SDS011;6865;52.552;13.434;2022-08-11T09:00:27;5.28;;;2.92;;
13588;SDS011;6865;52.552;13.434;2022-08-11T09:03:04;4.47;;;3.20;;
13588;SDS011;6865;52.552;13.434;2022-08-11T09:05:52;5.00;;;2.83;;
13588;SDS011;6865;52.552;13.434;2022-08-11T09:08:21;3.72;;;2.90;;
13588;SDS011;6865;52.552;13.434;2022-08-11T09:10:49;4.60;;;2.80;;
13588;SDS011;6865;52.552;13.434;2022-08-11T09:13:39;6.57;;;3.15;;
13588;SDS011;6865;52.552;13.434;2022-08-11T09:16:09;5.32;;;3.22;;
13588;SDS011;6865;52.552;13.434;2022-08-11T09:18:37;5.00;;;2.85;;
13588;SDS011;6865;52.552;13.434;2022-08-11T09:21:10;5.78;;;3.03;;
13588;SDS011;6865;52.552;13.434;2022-08-11T09:24:02;4.00;;;2.80;;
13588;SDS011;6865;52.552;13.434;2022-08-11T09:26:51;6.72;;;3.45;;
13588;SDS011;6865;52.552;13.434;2022-08-11T09:29:29;4.15;;;2.95;;
13588;SDS011;6865;52.552;13.434;2022-08-11T09:31:58;5.35;;;3.00;;
13588;SDS011;6865;52.552;13.434;2022-08-11T09:34:25;6.57;;;3.10;;
13588;SDS011;6865;52.552;13.434;2022-08-11T09:36:52;5.88;;;2.85;;
13588;SDS011;6865;52.552;13.434;2022-08-11T09:39:58;5.28;;;3.00;;
13588;SDS011;6865;52.552;13.434;2022-08-11T09:42:44;6.07;;;3.33;;
13588;SDS011;6865;52.552;13.434;2022-08-11T09:45:30;5.32;;;3.60;;
13588;SDS011;6865;52.552;13.434;2022-08-11T09:48:05;3.20;;;2.80;;
13588;SDS011;6865;52.552;13.434;2022-08-11T09:50:33;7.00;;;3.00;;
13588;SDS011;6865;52.552;13.434;2022-08-11T09:53:00;7.55;;;3.13;;
13588;SDS011;6865;52.552;13.434;2022-08-11T09:55:51;5.45;;;2.95;;
13588;SDS011;6865;52.552;13.434;2022-08-11T09:58:18;4.03;;;3.00;;
13588;SDS011;6865;52.552;13.434;2022-08-11T10:01:08;4.70;;;2.80;;
13588;SDS011;6865;52.552;13.434;2022-08-11T10:07:03;3.42;;;2.67;;
13588;SDS011;6865;52.552;13.434;2022-08-11T10:09:43;5.55;;;2.95;;
13588;SDS011;6865;52.552;13.434;2022-08-11T10:12:31;6.50;;;2.92;;
13588;SDS011;6865;52.552;13.434;2022-08-11T10:15:01;4.35;;;2.60;;
13588;SDS011;6865;52.552;13.434;2022-08-11T10:17:52;6.57;;;3.20;;
13588;SDS011;6865;52.552;13.434;2022-08-11T10:20:46;3.42;;;3.03;;
13588;SDS011;6865;52.552;13.434;2022-08-11T10:23:15;3.90;;;2.83;;
13588;SDS011;6865;52.552;13.434;2022-08-11T10:26:22;4.00;;;3.00;;
13588;SDS011;6865;52.552;13.434;2022-08-11T10:29:09;5.85;;;3.13;;
13588;SDS011;6865;52.552;13.434;2022-08-11T10:32:02;4.38;;;2.95;;
13588;SDS011;6865;52.552;13.434;2022-08-11T10:34:56;5.53;;;3.10;;
13588;SDS011;6865;52.552;13.434;2022-08-11T10:37:26;3.25;;;2.95;;
13588;SDS011;6865;52.552;13.434;2022-08-11T10:40:20;6.05;;;2.80;;
13588;SDS011;6865;52.552;13.434;2022-08-11T10:42:51;7.95;;;2.85;;
13588;SDS011;6865;52.552;13.434;2022-08-11T10:45:36;5.25;;;2.85;;
13588;SDS011;6865;52.552;13.434;2022-08-11T10:48:23;5.10;;;2.75;;
13588;SDS011;6865;52.552;13.434;2022-08-11T10:50:51;3.47;;;2.90;;
13588;SDS011;6865;52.552;13.434;2022-08-11T10:53:38;4.90;;;2.90;;
13588;SDS011;6865;52.552;13.434;2022-08-11T10:56:26;4.50;;;2.63;;
13588;SDS011;6865;52.552;13.434;2022-08-11T10:59:14;4.43;;;2.70;;
13588;SDS011;6865;52.552;13.434;2022-08-11T11:01:42;3.33;;;2.78;;
13588;SDS011;6865;52.552;13.434;2022-08-11T11:04:13;8.32;;;3.33;;
13588;SDS011;6865;52.552;13.434;2022-08-11T11:06:50;6.05;;;2.65;;
13588;SDS011;6865;52.552;13.434;2022-08-11T11:09:32;6.13;;;2.72;;
13588;SDS011;6865;52.552;13.434;2022-08-11T11:15:10;4.90;;;3.15;;
13588;SDS011;6865;52.552;13.434;2022-08-11T11:17:59;4.00;;;3.15;;
13588;SDS011;6865;52.552;13.434;2022-08-11T11:23:22;5.65;;;2.70;;
13588;SDS011;6865;52.552;13.434;2022-08-11T11:26:20;2.95;;;2.60;;
13588;SDS011;6865;52.552;13.434;2022-08-11T11:29:10;4.70;;;2.83;;
13588;SDS011;6865;52.552;13.434;2022-08-11T11:32:08;2.88;;;2.55;;
13588;SDS011;6865;52.552;13.434;2022-08-11T11:35:03;3.47;;;2.50;;
13588;SDS011;6865;52.552;13.434;2022-08-11T11:37:49;10.93;;;3.17;;
13588;SDS011;6865;52.552;13.434;2022-08-11T11:40:30;5.13;;;2.75;;
13588;SDS011;6865;52.552;13.434;2022-08-11T11:42:58;3.40;;;2.45;;
13588;SDS011;6865;52.552;13.434;2022-08-11T11:45:26;4.72;;;2.90;;
13588;SDS011;6865;52.552;13.434;2022-08-11T11:47:54;4.80;;;3.05;;
13588;SDS011;6865;52.552;13.434;2022-08-11T11:50:27;5.47;;;2.97;;
13588;SDS011;6865;52.552;13.434;2022-08-11T11:53:05;4.85;;;2.85;;
13588;SDS011;6865;52.552;13.434;2022-08-11T11:55:33;4.30;;;2.60;;
13588;SDS011;6865;52.552;13.434;2022-08-11T11:58:01;5.65;;;3.03;;
13588;SDS011;6865;52.552;13.434;2022-08-11T12:00:48;7.38;;;2.83;;
13588;SDS011;6865;52.552;13.434;2022-08-11T12:03:34;3.58;;;2.92;;
13588;SDS011;6865;52.552;13.434;2022-08-11T12:06:03;6.47;;;3.63;;
13588;SDS011;6865;52.552;13.434;2022-08-11T12:08:31;4.00;;;2.72;;
13588;SDS011;6865;52.552;13.434;2022-08-11T12:11:02;7.25;;;2.70;;
13588;SDS011;6865;52.552;13.434;2022-08-11T12:13:50;8.75;;;2.95;;
13588;SDS011;6865;52.552;13.434;2022-08-11T12:16:19;4.25;;;2.65;;
13588;SDS011;6865;52.552;13.434;2022-08-11T12:19:01;3.63;;;2.80;;
13588;SDS011;6865;52.552;13.434;2022-08-11T12:21:37;8.45;;;3.05;;
13588;SDS011;6865;52.552;13.434;2022-08-11T12:24:27;4.28;;;2.72;;
13588;SDS011;6865;52.552;13.434;2022-08-11T12:27:13;6.90;;;4.72;;
13588;SDS011;6865;52.552;13.434;2022-08-11T12:29:51;3.47;;;2.78;;
13588;SDS011;6865;52.552;13.434;2022-08-11T12:32:26;4.63;;;2.92;;
13588;SDS011;6865;52.552;13.434;2022-08-11T12:34:56;5.72;;;2.67;;
13588;SDS011;6865;52.552;13.434;2022-08-11T12:37:26;3.47;;;2.70;;
13588;SDS011;6865;52.552;13.434;2022-08-11T12:39:58;9.88;;;2.88;;
13588;SDS011;6865;52.552;13.434;2022-08-11T12:43:08;6.20;;;2.70;;
13588;SDS011;6865;52.552;13.434;2022-08-11T12:46:04;3.85;;;2.92;;
13588;SDS011;6865;52.552;13.434;2022-08-11T12:48:42;3.78;;;3.22;;
13588;SDS011;6865;52.552;13.434;2022-08-11T12:51:34;2.83;;;2.60;;
13588;SDS011;6865;52.552;13.434;2022-08-11T12:57:40;5.22;;;2.90;;
13588;SDS011;6865;52.552;13.434;2022-08-11T13:00:29;3.97;;;2.63;;
13588;SDS011;6865;52.552;13.434;2022-08-11T13:03:17;4.07;;;3.10;;
13588;SDS011;6865;52.552;13.434;2022-08-11T13:06:04;4.63;;;2.70;;
13588;SDS011;6865;52.552;13.434;2022-08-11T13:08:32;6.75;;;2.40;;
13588;SDS011;6865;52.552;13.434;2022-08-11T13:11:01;3.58;;;2.47;;
13588;SDS011;6865;52.552;13.434;2022-08-11T13:13:48;7.60;;;3.10;;
13588;SDS011;6865;52.552;13.434;2022-08-11T13:16:23;4.05;;;2.90;;
13588;SDS011;6865;52.552;13.434;2022-08-11T13:18:53;4.65;;;2.60;;
13588;SDS011;6865;52.552;13.434;2022-08-11T13:21:22;4.50;;;2.20;;
13588;SDS011;6865;52.552;13.434;2022-08-11T13:23:50;5.57;;;2.33;;
13588;SDS011;6865;52.552;13.434;2022-08-11T13:26:27;2.85;;;2.20;;
13588;SDS011;6865;52.552;13.434;2022-08-11T13:29:18;4.85;;;2.40;;
13588;SDS011;6865;52.552;13.434;2022-08-11T13:31:49;3.33;;;2.40;;
13588;SDS011;6865;52.552;13.434;2022-08-11T13:34:19;3.58;;;2.33;;
13588;SDS011;6865;52.552;13.434;2022-08-11T13:36:48;2.88;;;2.22;;
13588;SDS011;6865;52.552;13.434;2022-08-11T13:39:18;3.70;;;2.17;;
13588;SDS011;6865;52.552;13.434;2022-08-11T13:41:49;4.93;;;2.45;;
13588;SDS011;6865;52.552;13.434;2022-08-11T13:44:16;4.57;;;2.40;;
13588;SDS011;6865;52.552;13.434;2022-08-11T13:46:50;3.60;;;2.30;;
13588;SDS011;6865;52.552;13.434;2022-08-11T13:49:18;2.05;;;1.85;;
13588;SDS011;6865;52.552;13.434;2022-08-11T13:51:46;3.83;;;2.22;;
13588;SDS011;6865;52.552;13.434;2022-08-11T13:54:17;2.95;;;1.90;;
13588;SDS011;6865;52.552;13.434;2022-08-11T13:56:48;3.10;;;2.20;;
13588;SDS011;6865;52.552;13.434;2022-08-11T13:59:19;3.97;;;2.30;;
13588;SDS011;6865;52.552;13.434;2022-08-11T14:01:55;7.10;;;2.47;;
13588;SDS011;6865;52.552;13.434;2022-08-11T14:04:51;2.72;;;2.13;;
13588;SDS011;6865;52.552;13.434;2022-08-11T14:07:24;3.13;;;2.30;;
13588;SDS011;6865;52.552;13.434;2022-08-11T14:09:59;3.20;;;2.10;;
13588;SDS011;6865;52.552;13.434;2022-08-11T14:12:31;4.70;;;2.58;;
13588;SDS011;6865;52.552;13.434;2022-08-11T14:15:23;1.85;;;1.75;;
13588;SDS011;6865;52.552;13.434;2022-08-11T14:17:56;3.90;;;1.90;;
13588;SDS011;6865;52.552;13.434;2022-08-11T14:20:34;2.10;;;1.90;;
13588;SDS011;6865;52.552;13.434;2022-08-11T14:23:39;2.28;;;1.90;;
13588;SDS011;6865;52.552;13.434;2022-08-11T14:26:08;5.55;;;1.90;;
13588;SDS011;6865;52.552;13.434;2022-08-11T14:28:52;4.18;;;2.10;;
13588;SDS011;6865;52.552;13.434;2022-08-11T14:31:25;3.28;;;1.80;;
13588;SDS011;6865;52.552;13.434;2022-08-11T14:33:54;4.35;;;1.95;;
13588;SDS011;6865;52.552;13.434;2022-08-11T14:36:46;3.38;;;2.00;;
13588;SDS011;6865;52.552;13.434;2022-08-11T14:39:17;4.32;;;2.00;;
13588;SDS011;6865;52.552;13.434;2022-08-11T14:41:52;2.88;;;1.98;;
13588;SDS011;6865;52.552;13.434;2022-08-11T14:44:44;4.80;;;1.90;;
13588;SDS011;6865;52.552;13.434;2022-08-11T14:47:38;2.25;;;1.70;;
13588;SDS011;6865;52.552;13.434;2022-08-11T14:50:16;2.58;;;1.70;;
13588;SDS011;6865;52.552;13.434;2022-08-11T14:52:52;4.40;;;1.90;;
13588;SDS011;6865;52.552;13.434;2022-08-11T14:55:22;2.17;;;1.60;;
13588;SDS011;6865;52.552;13.434;2022-08-11T14:58:09;9.93;;;2.03;;
13588;SDS011;6865;52.552;13.434;2022-08-11T15:00:38;2.33;;;1.77;;
13588;SDS011;6865;52.552;13.434;2022-08-11T15:03:07;2.55;;;1.80;;
13588;SDS011;6865;52.552;13.434;2022-08-11T15:05:49;3.63;;;1.75;;
13588;SDS011;6865;52.552;13.434;2022-08-11T15:08:23;4.78;;;1.70;;
13588;SDS011;6865;52.552;13.434;2022-08-11T15:11:19;2.13;;;1.92;;
13588;SDS011;6865;52.552;13.434;2022-08-11T15:14:12;3.45;;;1.60;;
13588;SDS011;6865;52.552;13.434;2022-08-11T15:17:00;2.00;;;1.80;;
13588;SDS011;6865;52.552;13.434;2022-08-11T15:19:33;3.10;;;2.00;;
13588;SDS011;6865;52.552;13.434;2022-08-11T15:22:06;2.42;;;1.80;;
13588;SDS011;6865;52.552;13.434;2022-08-11T15:24:53;4.65;;;1.90;;
13588;SDS011;6865;52.552;13.434;2022-08-11T15:27:20;3.08;;;1.58;;
13588;SDS011;6865;52.552;13.434;2022-08-11T15:30:07;2.92;;;1.77;;
13588;SDS011;6865;52.552;13.434;2022-08-11T15:33:00;3.40;;;2.10;;
13588;SDS011;6865;52.552;13.434;2022-08-11T15:35:51;2.45;;;1.90;;
13588;SDS011;6865;52.552;13.434;2022-08-11T15:38:39;8.32;;;1.83;;
13588;SDS011;6865;52.552;13.434;2022-08-11T15:41:20;2.72;;;1.55;;
13588;SDS011;6865;52.552;13.434;2022-08-11T15:44:21;1.85;;;1.60;;
13588;SDS011;6865;52.552;13.434;2022-08-11T15:47:28;3.15;;;1.70;;
13588;SDS011;6865;52.552;13.434;2022-08-11T15:50:01;3.45;;;1.77;;
13588;SDS011;6865;52.552;13.434;2022-08-11T15:52:44;3.10;;;1.70;;
13588;SDS011;6865;52.552;13.434;2022-08-11T15:55:17;3.10;;;1.75;;
13588;SDS011;6865;52.552;13.434;2022-08-11T15:57:46;3.08;;;1.70;;
13588;SDS011;6865;52.552;13.434;2022-08-11T16:00:34;4.70;;;1.70;;
13588;SDS011;6865;52.552;13.434;2022-08-11T16:03:35;2.90;;;1.77;;
13588;SDS011;6865;52.552;13.434;2022-08-11T16:06:35;3.15;;;1.52;;
13588;SDS011;6865;52.552;13.434;2022-08-11T16:09:16;2.70;;;1.70;;
13588;SDS011;6865;52.552;13.434;2022-08-11T16:11:47;2.30;;;1.70;;
13588;SDS011;6865;52.552;13.434;2022-08-11T16:14:15;2.05;;;1.80;;
13588;SDS011;6865;52.552;13.434;2022-08-11T16:17:03;2.85;;;1.85;;
13588;SDS011;6865;52.552;13.434;2022-08-11T16:19:32;3.78;;;1.95;;
13588;SDS011;6865;52.552;13.434;2022-08-11T16:22:02;3.05;;;1.80;;
13588;SDS011;6865;52.552;13.434;2022-08-11T16:24:34;4.03;;;1.75;;
13588;SDS011;6865;52.552;13.434;2022-08-11T16:27:23;3.88;;;1.80;;
13588;SDS011;6865;52.552;13.434;2022-08-11T16:29:51;4.20;;;1.83;;
13588;SDS011;6865;52.552;13.434;2022-08-11T16:32:20;2.60;;;1.80;;
13588;SDS011;6865;52.552;13.434;2022-08-11T16:34:50;3.38;;;1.75;;
13588;SDS011;6865;52.552;13.434;2022-08-11T16:37:42;5.43;;;1.90;;
13588;SDS011;6865;52.552;13.434;2022-08-11T16:40:29;2.38;;;1.67;;
13588;SDS011;6865;52.552;13.434;2022-08-11T16:42:57;3.67;;;1.70;;
13588;SDS011;6865;52.552;13.434;2022-08-11T16:45:43;1.85;;;1.50;;
13588;SDS011;6865;52.552;13.434;2022-08-11T16:48:30;5.55;;;1.80;;
13588;SDS011;6865;52.552;13.434;2022-08-11T16:51:03;2.15;;;1.70;;
13588;SDS011;6865;52.552;13.434;2022-08-11T16:53:31;2.60;;;1.73;;
13588;SDS011;6865;52.552;13.434;2022-08-11T16:56:19;2.45;;;1.67;;
13588;SDS011;6865;52.552;13.434;2022-08-11T16:58:56;2.40;;;1.60;;
13588;SDS011;6865;52.552;13.434;2022-08-11T17:01:46;4.07;;;1.92;;
13588;SDS011;6865;52.552;13.434;2022-08-11T17:04:28;2.08;;;1.70;;
13588;SDS011;6865;52.552;13.434;2022-08-11T17:07:21;2.47;;;1.55;;
13588;SDS011;6865;52.552;13.434;2022-08-11T17:10:10;2.63;;;1.70;;
13588;SDS011;6865;52.552;13.434;2022-08-11T17:13:20;1.90;;;1.60;;
13588;SDS011;6865;52.552;13.434;2022-08-11T17:15:50;4.53;;;1.90;;
13588;SDS011;6865;52.552;13.434;2022-08-11T17:18:53;2.80;;;2.00;;
13588;SDS011;6865;52.552;13.434;2022-08-11T17:24:27;5.43;;;2.00;;
13588;SDS011;6865;52.552;13.434;2022-08-11T17:26:56;4.03;;;1.65;;
13588;SDS011;6865;52.552;13.434;2022-08-11T17:29:35;5.70;;;1.60;;
13588;SDS011;6865;52.552;13.434;2022-08-11T17:32:29;2.35;;;1.75;;
13588;SDS011;6865;52.552;13.434;2022-08-11T17:35:27;3.63;;;1.67;;
13588;SDS011;6865;52.552;13.434;2022-08-11T17:38:11;2.20;;;1.80;;
13588;SDS011;6865;52.552;13.434;2022-08-11T17:40:42;3.35;;;2.13;;
13588;SDS011;6865;52.552;13.434;2022-08-11T17:43:48;2.10;;;1.70;;
13588;SDS011;6865;52.552;13.434;2022-08-11T17:46:35;2.25;;;1.73;;
13588;SDS011;6865;52.552;13.434;2022-08-11T17:49:24;4.43;;;1.95;;
13588;SDS011;6865;52.552;13.434;2022-08-11T17:51:52;4.75;;;1.90;;
13588;SDS011;6865;52.552;13.434;2022-08-11T17:54:38;3.05;;;1.88;;
13588;SDS011;6865;52.552;13.434;2022-08-11T17:57:26;4.03;;;1.88;;
13588;SDS011;6865;52.552;13.434;2022-08-11T18:00:14;2.65;;;1.80;;
13588;SDS011;6865;52.552;13.434;2022-08-11T18:02:42;4.75;;;2.13;;
13588;SDS011;6865;52.552;13.434;2022-08-11T18:05:29;2.60;;;1.80;;
13588;SDS011;6865;52.552;13.434;2022-08-11T18:07:59;2.50;;;2.00;;
13588;SDS011;6865;52.552;13.434;2022-08-11T18:10:49;3.63;;;2.00;;
13588;SDS011;6865;52.552;13.434;2022-08-11T18:13:42;5.72;;;2.03;;
13588;SDS011;6865;52.552;13.434;2022-08-11T18:16:28;3.45;;;1.80;;
13588;SDS011;6865;52.552;13.434;2022-08-11T18:19:14;2.08;;;1.80;;
13588;SDS011;6865;52.552;13.434;2022-08-11T18:22:05;2.45;;;2.00;;
13588;SDS011;6865;52.552;13.434;2022-08-11T18:24:54;7.13;;;2.50;;